createdAt,value
2017-11-30T14:42:42.549Z,1
2017-11-30T14:43:43.921Z,1.1
2017-11-30T14:44:45.885Z,1
2017-11-30T14:45:47.272Z,1
2017-11-30T14:46:48.643Z,1
2017-11-30T14:47:50.619Z,1
2017-11-30T14:48:54.041Z,0.9
2017-11-30T14:49:55.922Z,0.9
2017-11-30T14:50:57.812Z,1
2017-11-30T14:52:00.510Z,1
2017-11-30T14:53:06.268Z,0.9
2017-11-30T14:54:09.186Z,0.9
2017-11-30T14:55:13.564Z,0.9
2017-11-30T14:56:18.095Z,0.9
2017-11-30T14:57:19.412Z,0.8
2017-11-30T14:58:22.174Z,0.8
2017-11-30T14:59:24.954Z,0.8
2017-11-30T15:00:26.319Z,0.9
2017-11-30T15:02:39.920Z,0.9
2017-11-30T15:03:44.460Z,0.9
2017-11-30T15:04:49.148Z,0.9
2017-11-30T15:05:52.480Z,0.9
2017-11-30T15:06:53.787Z,0.8
2017-11-30T15:07:55.137Z,0.4
2017-11-30T15:08:56.498Z,0.6
2017-11-30T15:09:57.896Z,0.7
2017-11-30T15:10:59.176Z,0.7
2017-11-30T15:12:00.540Z,0.8
2017-11-30T15:13:01.784Z,0.9
2017-11-30T15:14:04.582Z,0.9
2017-11-30T15:15:06.044Z,0.9
2017-11-30T15:16:07.371Z,1
2017-11-30T15:17:08.659Z,1
2017-11-30T15:18:10.016Z,0.9
2017-11-30T15:19:11.317Z,0.9
2017-11-30T15:20:13.680Z,0.9
2017-11-30T15:21:15.146Z,0.9
2017-11-30T15:22:16.382Z,0.9
2017-11-30T15:23:17.773Z,0.9
2017-11-30T15:24:20.523Z,0.9
2017-11-30T15:25:21.788Z,0.9
2017-11-30T15:26:23.031Z,0.9
2017-11-30T15:27:24.312Z,0.9
2017-11-30T15:28:25.889Z,0.9
2017-11-30T15:29:27.162Z,1
2017-11-30T15:30:28.459Z,1
2017-11-30T15:31:29.778Z,0.9
2017-11-30T15:32:31.640Z,0.9
2017-11-30T15:33:33.286Z,0.9
2017-11-30T15:34:35.993Z,0.9
2017-11-30T15:35:37.308Z,0.9
2017-11-30T15:36:38.692Z,0.8
2017-11-30T15:37:40.085Z,0.8
2017-11-30T15:38:41.652Z,0.8
2017-11-30T15:39:43.012Z,0.8
2017-11-30T15:40:45.238Z,0.8
2017-11-30T15:41:46.580Z,0.8
2017-11-30T15:42:47.967Z,0.7
2017-11-30T15:43:49.599Z,0.8
2017-11-30T15:44:52.474Z,0.2
2017-11-30T15:45:54.533Z,0.7
2017-11-30T15:46:55.819Z,0.7
2017-11-30T15:47:57.196Z,0.7
2017-11-30T15:48:58.643Z,0.7
2017-11-30T15:49:59.923Z,0.8
2017-11-30T15:51:01.370Z,0.7
2017-11-30T15:52:02.725Z,0.7
2017-11-30T15:53:04.149Z,0.7
2017-11-30T15:54:06.422Z,1.1
2017-11-30T15:55:09.239Z,0.9
2017-11-30T15:56:10.584Z,0.7
2017-11-30T15:57:11.908Z,0.7
2017-11-30T15:58:13.321Z,0.7
2017-11-30T15:59:14.852Z,0.7
2017-11-30T16:00:16.161Z,0.7
2017-11-30T16:01:17.438Z,0.7
2017-11-30T16:02:18.695Z,0.7
2017-11-30T16:03:20.468Z,0.7
2017-11-30T16:04:21.830Z,0.7
2017-11-30T16:05:24.498Z,0.7
2017-11-30T16:06:25.841Z,0.7
2017-11-30T16:07:27.177Z,0.6
2017-11-30T16:08:28.407Z,0.7
2017-11-30T16:09:30.050Z,0.6
2017-11-30T16:10:31.481Z,0.6
2017-11-30T16:11:32.824Z,0.7
2017-11-30T16:12:34.173Z,0.6
2017-11-30T16:13:35.564Z,0.6
2017-11-30T16:14:36.884Z,0.6
2017-11-30T16:15:39.562Z,0.6
2017-11-30T16:16:40.893Z,0.6
2017-11-30T16:17:42.198Z,0.1
2017-11-30T16:18:43.468Z,0.6
2017-11-30T16:19:44.861Z,0.6
2017-11-30T16:20:46.287Z,0.6
2017-11-30T16:21:47.682Z,0.6
2017-11-30T16:22:49.130Z,0.6
2017-11-30T16:23:50.432Z,0.6
2017-11-30T16:24:51.686Z,0.6
2017-11-30T16:25:54.291Z,0.6
2017-11-30T16:26:55.678Z,0.6
2017-11-30T16:27:56.958Z,0.6
2017-11-30T16:28:58.925Z,0.6
2017-11-30T16:30:00.233Z,0.7
2017-11-30T16:31:02.246Z,0.7
2017-11-30T16:32:03.569Z,0.7
2017-11-30T16:33:04.896Z,0.8
2017-11-30T16:34:06.233Z,0.7
2017-11-30T16:35:07.598Z,0.7
2017-11-30T16:36:10.955Z,0.7
2017-11-30T16:37:12.260Z,0.7
2017-11-30T16:38:13.662Z,0.7
2017-11-30T16:39:14.966Z,0.7
2017-11-30T16:40:16.310Z,0.7
2017-11-30T16:41:17.607Z,0.7
2017-11-30T16:42:18.911Z,0.7
2017-11-30T16:43:20.245Z,0.7
2017-11-30T16:44:21.647Z,0.8
2017-11-30T16:45:23.008Z,0.8
2017-11-30T16:46:25.719Z,0.7
2017-11-30T16:47:27.047Z,0.7
2017-11-30T16:48:28.288Z,0.7
2017-11-30T16:49:29.508Z,0.7
2017-11-30T16:50:30.849Z,0.7
2017-11-30T16:51:32.746Z,0.2
2017-11-30T16:52:34.094Z,0.8
2017-11-30T16:53:35.369Z,0.7
2017-11-30T16:54:36.716Z,0.7
2017-11-30T16:55:38.157Z,0.8
2017-11-30T16:56:40.901Z,0.8
2017-11-30T16:57:42.343Z,0.7
2017-11-30T16:58:43.642Z,0.7
2017-11-30T16:59:45.022Z,0.7
2017-11-30T17:00:46.423Z,0.7
2017-11-30T17:01:47.720Z,0.7
2017-11-30T17:02:49.038Z,0.7
2017-11-30T17:03:50.381Z,0.7
2017-11-30T17:04:51.711Z,0.7
2017-11-30T17:05:53.119Z,0.7
2017-11-30T17:06:55.812Z,0.7
2017-11-30T17:07:57.205Z,0.7
2017-11-30T17:08:58.499Z,0.6
2017-11-30T17:09:59.918Z,0.6
2017-11-30T17:11:01.569Z,0.6
2017-11-30T17:12:02.859Z,1
2017-11-30T17:13:04.176Z,0.6
2017-11-30T17:14:05.594Z,0.6
2017-11-30T17:15:06.881Z,0.7
2017-11-30T17:16:08.473Z,0.6
2017-11-30T17:17:11.215Z,0.6
2017-11-30T17:18:12.602Z,0.6
2017-11-30T17:19:13.983Z,0.6
2017-11-30T17:20:15.921Z,0.6
2017-11-30T17:21:18.263Z,0.6
2017-11-30T17:22:19.670Z,0.5
2017-11-30T17:23:20.997Z,0.6
2017-11-30T17:24:22.230Z,0.5
2017-11-30T17:25:23.573Z,0.5
2017-11-30T17:26:25.173Z,0.5
2017-11-30T17:27:27.913Z,0.5
2017-11-30T17:28:29.736Z,0.5
2017-11-30T17:29:31.089Z,0.4
2017-11-30T17:30:32.447Z,0.4
2017-11-30T17:31:33.804Z,0.4
2017-11-30T17:32:35.171Z,0.4
2017-11-30T17:33:36.525Z,0.4
2017-11-30T17:34:37.893Z,0.4
2017-11-30T17:35:39.400Z,0.4
2017-11-30T17:36:41.035Z,0.4
2017-11-30T17:37:43.771Z,0.4
2017-11-30T17:38:45.791Z,0.4
2017-11-30T17:39:47.074Z,0.4
2017-11-30T17:40:48.311Z,0.4
2017-11-30T17:41:49.639Z,0.4
2017-11-30T17:42:50.971Z,0.4
2017-11-30T17:43:52.284Z,0.3
2017-11-30T17:44:53.573Z,0.3
2017-11-30T17:45:54.870Z,0.3
2017-11-30T17:46:56.288Z,0.3
2017-11-30T17:47:59.053Z,0.3
2017-11-30T17:49:00.368Z,0.3
2017-11-30T17:50:01.775Z,0.7
2017-11-30T17:51:03.138Z,0.3
2017-11-30T17:52:04.518Z,0.3
2017-11-30T17:53:05.827Z,0.3
2017-11-30T17:54:07.223Z,0.4
2017-11-30T17:55:08.584Z,0.4
2017-11-30T17:56:09.930Z,-0.1
2017-11-30T17:57:11.358Z,0.4
2017-11-30T17:58:14.033Z,0.4
2017-11-30T17:59:15.307Z,0.3
2017-11-30T18:00:16.683Z,0.3
2017-11-30T18:01:17.975Z,0.3
2017-11-30T18:02:19.357Z,0.2
2017-11-30T18:03:20.538Z,0.3
2017-11-30T18:04:22.514Z,0.3
2017-11-30T18:05:23.808Z,0.3
2017-11-30T18:06:25.706Z,0.3
2017-11-30T18:07:26.983Z,0.3
2017-11-30T18:08:29.735Z,0.3
2017-11-30T18:09:31.066Z,0.3
2017-11-30T18:10:32.421Z,0.3
2017-11-30T18:11:33.706Z,0.2
2017-11-30T18:12:35.137Z,0.2
2017-11-30T18:13:36.428Z,0.2
2017-11-30T18:14:37.788Z,0.2
2017-11-30T18:15:39.057Z,0.2
2017-11-30T18:16:40.464Z,0.2
2017-11-30T18:17:41.844Z,0.2
2017-11-30T18:18:45.072Z,0.2
2017-11-30T18:19:46.391Z,0.1
2017-11-30T18:20:47.715Z,0.1
2017-11-30T18:21:49.104Z,0.1
2017-11-30T18:22:50.449Z,0.1
2017-11-30T18:23:51.790Z,0.1
2017-11-30T18:24:53.188Z,0
2017-11-30T18:25:54.462Z,0
2017-11-30T18:26:55.773Z,0
2017-11-30T18:27:57.242Z,-0.1
2017-11-30T18:28:59.994Z,-0.1
2017-11-30T18:30:01.276Z,0
2017-11-30T18:31:02.610Z,0
2017-11-30T18:32:04.007Z,0
2017-11-30T18:33:05.396Z,0
2017-11-30T18:34:06.640Z,0
2017-11-30T18:35:07.954Z,0
2017-11-30T18:36:10.121Z,0
2017-11-30T18:37:11.512Z,0
2017-11-30T18:38:12.967Z,-0.1
2017-11-30T18:39:15.664Z,-0.1
2017-11-30T18:40:17.822Z,-0.1
2017-11-30T18:41:19.235Z,-0.2
2017-11-30T18:42:20.594Z,-0.2
2017-11-30T18:43:22.169Z,-0.2
2017-11-30T18:44:23.384Z,-0.1
2017-11-30T18:45:24.732Z,-0.2
2017-11-30T18:46:26.002Z,-0.2
2017-11-30T18:47:27.225Z,-0.2
2017-11-30T18:48:28.494Z,-0.1
2017-11-30T18:49:31.795Z,-0.2
2017-11-30T18:50:33.090Z,-0.2
2017-11-30T18:51:35.080Z,-0.2
2017-11-30T18:52:36.301Z,-0.2
2017-11-30T18:53:37.730Z,-0.3
2017-11-30T18:54:39.062Z,0.2
2017-11-30T18:55:40.383Z,-0.3
2017-11-30T18:56:41.692Z,-0.3
2017-11-30T18:57:42.984Z,-0.3
2017-11-30T18:58:44.413Z,-0.3
2017-11-30T18:59:46.997Z,-0.3
2017-11-30T19:00:48.317Z,-0.3
2017-11-30T19:01:49.638Z,-0.2
2017-11-30T19:02:51.016Z,-0.3
2017-11-30T19:03:52.372Z,-0.3
2017-11-30T19:04:54.195Z,-0.4
2017-11-30T19:05:55.496Z,-0.4
2017-11-30T19:06:56.770Z,-0.3
2017-11-30T19:07:58.055Z,-0.4
2017-11-30T19:08:59.400Z,-0.3
2017-11-30T19:10:02.127Z,0.1
2017-11-30T19:11:03.563Z,-0.4
2017-11-30T19:12:04.798Z,-0.3
2017-11-30T19:13:06.071Z,-0.4
2017-11-30T19:14:09.842Z,-0.4
2017-11-30T19:15:11.231Z,-0.4
2017-11-30T19:16:13.196Z,-0.5
2017-11-30T19:17:14.454Z,-0.5
2017-11-30T19:18:15.850Z,-0.5
2017-11-30T19:19:17.268Z,-0.5
2017-11-30T19:20:19.935Z,-0.5
2017-11-30T19:21:21.268Z,-0.5
2017-11-30T19:22:22.574Z,-0.4
2017-11-30T19:23:23.877Z,-0.4
2017-11-30T19:24:26.115Z,-0.4
2017-11-30T19:25:27.488Z,-0.4
2017-11-30T19:26:28.881Z,-0.3
2017-11-30T19:27:30.143Z,-0.4
2017-11-30T19:28:31.478Z,-0.4
2017-11-30T19:29:33.129Z,-0.3
2017-11-30T19:30:35.681Z,-0.4
2017-11-30T19:31:36.997Z,-0.4
2017-11-30T19:32:38.274Z,-0.4
2017-11-30T19:33:39.496Z,-0.3
2017-11-30T19:34:40.821Z,-0.3
2017-11-30T19:35:42.178Z,-0.3
2017-11-30T19:36:43.468Z,-0.3
2017-11-30T19:37:44.790Z,-0.3
2017-11-30T19:38:46.039Z,-0.2
2017-11-30T19:39:47.420Z,-0.3
2017-11-30T19:40:50.209Z,-0.3
2017-11-30T19:41:51.668Z,-0.3
2017-11-30T19:42:52.961Z,-0.3
2017-11-30T19:43:54.406Z,-0.3
2017-11-30T19:44:55.771Z,-0.3
2017-11-30T19:45:57.117Z,-0.3
2017-11-30T19:46:58.459Z,-0.2
2017-11-30T19:47:59.875Z,-0.3
2017-11-30T19:49:01.195Z,-0.3
2017-11-30T19:50:02.573Z,-0.3
2017-11-30T19:51:05.237Z,-0.3
2017-11-30T19:52:06.708Z,-0.4
2017-11-30T19:53:08.031Z,-0.4
2017-11-30T19:54:09.457Z,0
2017-11-30T19:55:10.908Z,-0.4
2017-11-30T19:56:12.286Z,-0.4
2017-11-30T19:57:13.599Z,-0.4
2017-11-30T19:58:14.879Z,-0.3
2017-11-30T19:59:16.207Z,-0.3
2017-11-30T20:00:17.770Z,-0.3
2017-11-30T20:01:20.523Z,-0.3
2017-11-30T20:02:21.965Z,-0.2
2017-11-30T20:03:23.398Z,-0.2
2017-11-30T20:04:24.718Z,-0.2
2017-11-30T20:05:26.101Z,-0.2
2017-11-30T20:06:27.430Z,-0.2
2017-11-30T20:07:28.751Z,-0.2
2017-11-30T20:08:30.059Z,-0.2
2017-11-30T20:09:31.418Z,-0.2
2017-11-30T20:10:32.799Z,-0.3
2017-11-30T20:11:35.462Z,-0.9
2017-11-30T20:12:36.831Z,-0.4
2017-11-30T20:13:38.168Z,-0.4
2017-11-30T20:14:39.510Z,-0.4
2017-11-30T20:15:40.893Z,-0.4
2017-11-30T20:16:42.325Z,-0.5
2017-11-30T20:17:44.261Z,-0.4
2017-11-30T20:18:45.618Z,-0.6
2017-11-30T20:19:46.976Z,-0.5
2017-11-30T20:20:48.255Z,-0.5
2017-11-30T20:21:50.902Z,-0.5
2017-11-30T20:22:52.247Z,-0.5
2017-11-30T20:23:53.562Z,-0.4
2017-11-30T20:24:55.996Z,-0.4
2017-11-30T20:25:57.343Z,-0.4
2017-11-30T20:26:58.662Z,-0.4
2017-11-30T20:27:59.925Z,-0.5
2017-11-30T20:29:01.314Z,-0.5
2017-11-30T20:30:02.602Z,-0.5
2017-11-30T20:31:04.584Z,-0.5
2017-11-30T20:32:07.861Z,-0.5
2017-11-30T20:33:09.214Z,-0.5
2017-11-30T20:34:10.627Z,-0.5
2017-11-30T20:35:11.995Z,-0.5
2017-11-30T20:36:13.391Z,-0.5
2017-11-30T20:37:14.605Z,-0.5
2017-11-30T20:38:15.927Z,-0.5
2017-11-30T20:39:17.375Z,-0.5
2017-11-30T20:40:18.671Z,-0.5
2017-11-30T20:41:20.064Z,-0.5
2017-11-30T20:42:22.835Z,-0.3
2017-11-30T20:43:24.127Z,-0.5
2017-11-30T20:44:25.495Z,-0.5
2017-11-30T20:45:26.794Z,-0.6
2017-11-30T20:46:28.211Z,-0.6
2017-11-30T20:47:29.560Z,-0.6
2017-11-30T20:48:30.913Z,-0.6
2017-11-30T20:49:32.234Z,-0.5
2017-11-30T20:50:33.534Z,-0.5
2017-11-30T20:51:34.895Z,-0.5
2017-11-30T20:52:37.657Z,-0.5
2017-11-30T20:53:38.997Z,-0.6
2017-11-30T20:54:40.336Z,-0.6
2017-11-30T20:55:41.654Z,-0.6
2017-11-30T20:56:43.058Z,-0.6
2017-11-30T20:57:44.354Z,-0.6
2017-11-30T20:58:45.720Z,-0.6
2017-11-30T20:59:47.049Z,-0.6
2017-11-30T21:00:48.406Z,-0.5
2017-11-30T21:01:49.811Z,-0.5
2017-11-30T21:02:52.609Z,-0.3
2017-11-30T21:03:53.991Z,-0.6
2017-11-30T21:04:55.334Z,-0.7
2017-11-30T21:05:56.650Z,-0.7
2017-11-30T21:06:58.089Z,-0.8
2017-11-30T21:08:00.091Z,-0.8
2017-11-30T21:09:01.512Z,-0.8
2017-11-30T21:10:02.949Z,-0.9
2017-11-30T21:11:04.141Z,-0.8
2017-11-30T21:12:05.381Z,-0.9
2017-11-30T21:13:08.084Z,-0.9
2017-11-30T21:14:09.446Z,-0.9
2017-11-30T21:15:10.872Z,-0.9
2017-11-30T21:16:12.183Z,-0.9
2017-11-30T21:17:13.563Z,-0.9
2017-11-30T21:18:14.827Z,-0.9
2017-11-30T21:19:16.160Z,-0.9
2017-11-30T21:20:17.518Z,-0.9
2017-11-30T21:21:18.890Z,-0.9
2017-11-30T21:22:20.239Z,-0.9
2017-11-30T21:23:23.040Z,-0.7
2017-11-30T21:24:24.356Z,-0.8
2017-11-30T21:25:25.670Z,-0.8
2017-11-30T21:26:27.058Z,-0.8
2017-11-30T21:27:28.445Z,-0.8
2017-11-30T21:28:29.768Z,-0.7
2017-11-30T21:29:31.149Z,-0.7
2017-11-30T21:30:32.482Z,-0.7
2017-11-30T21:31:33.826Z,-0.7
2017-11-30T21:32:35.159Z,-0.8
2017-11-30T21:33:37.791Z,-0.7
2017-11-30T21:34:39.098Z,-0.5
2017-11-30T21:35:40.275Z,-0.8
2017-11-30T21:36:41.632Z,-0.8
2017-11-30T21:37:42.959Z,-0.8
2017-11-30T21:38:44.276Z,-0.8
2017-11-30T21:39:45.596Z,-0.8
2017-11-30T21:40:46.965Z,-0.8
2017-11-30T21:41:48.267Z,-0.7
2017-11-30T21:42:49.647Z,-0.7
2017-11-30T21:43:52.396Z,-0.7
2017-11-30T21:44:53.688Z,-0.7
2017-11-30T21:45:54.926Z,-0.8
2017-11-30T21:46:56.313Z,-0.8
2017-11-30T21:47:57.608Z,-0.8
2017-11-30T21:48:58.884Z,-0.8
2017-11-30T21:50:00.203Z,-0.8
2017-11-30T21:51:01.500Z,-0.8
2017-11-30T21:52:02.907Z,-0.8
2017-11-30T21:53:04.183Z,-0.8
2017-11-30T21:54:06.708Z,-0.9
2017-11-30T21:55:08.003Z,-0.9
2017-11-30T21:56:09.307Z,-0.9
2017-11-30T21:57:10.642Z,-0.9
2017-11-30T21:58:11.950Z,-0.9
2017-11-30T21:59:13.172Z,-0.9
2017-11-30T22:00:14.597Z,-0.9
2017-11-30T22:01:15.908Z,-0.9
2017-11-30T22:02:17.185Z,-0.9
2017-11-30T22:03:18.385Z,-0.9
2017-11-30T22:04:20.991Z,-0.9
2017-11-30T22:05:22.365Z,-0.9
2017-11-30T22:06:23.795Z,-0.9
2017-11-30T22:07:25.077Z,-0.9
2017-11-30T22:08:26.412Z,-0.8
2017-11-30T22:09:27.786Z,-0.8
2017-11-30T22:10:29.034Z,-0.8
2017-11-30T22:11:30.346Z,-0.9
2017-11-30T22:12:31.737Z,-0.9
2017-11-30T22:13:33.321Z,-0.9
2017-11-30T22:14:36.076Z,-0.9
2017-11-30T22:15:37.361Z,-0.9
2017-11-30T22:16:38.680Z,-0.9
2017-11-30T22:17:39.994Z,-0.8
2017-11-30T22:18:41.291Z,-0.8
2017-11-30T22:19:42.648Z,-0.8
2017-11-30T22:20:43.951Z,-0.8
2017-11-30T22:21:45.229Z,-0.8
2017-11-30T22:22:46.525Z,-0.8
2017-11-30T22:23:47.961Z,-0.8
2017-11-30T22:24:50.649Z,-0.3
2017-11-30T22:25:51.972Z,-0.7
2017-11-30T22:26:53.275Z,-0.7
2017-11-30T22:27:54.595Z,-0.7
2017-11-30T22:28:55.901Z,-0.6
2017-11-30T22:29:57.164Z,-0.6
2017-11-30T22:30:58.495Z,-0.6
2017-11-30T22:31:59.754Z,-0.6
2017-11-30T22:33:01.137Z,-0.6
2017-11-30T22:34:02.494Z,-0.6
2017-11-30T22:35:05.194Z,-0.5
2017-11-30T22:36:06.576Z,-0.5
2017-11-30T22:37:07.908Z,-0.5
2017-11-30T22:38:09.314Z,-0.5
2017-11-30T22:39:10.865Z,-0.5
2017-11-30T22:40:12.152Z,-0.5
2017-11-30T22:41:13.477Z,-0.5
2017-11-30T22:42:14.805Z,-0.5
2017-11-30T22:43:16.230Z,-0.5
2017-11-30T22:44:17.714Z,-0.6
2017-11-30T22:45:20.289Z,-0.6
2017-11-30T22:46:21.612Z,-0.7
2017-11-30T22:47:23.007Z,-0.7
2017-11-30T22:48:24.251Z,-0.7
2017-11-30T22:49:25.671Z,-0.7
2017-11-30T22:50:27.013Z,-0.6
2017-11-30T22:51:28.330Z,-0.6
2017-11-30T22:52:29.643Z,-0.6
2017-11-30T22:53:30.872Z,-0.7
2017-11-30T22:54:32.282Z,-0.7
2017-11-30T22:55:35.019Z,-0.7
2017-11-30T22:56:36.332Z,-0.7
2017-11-30T22:57:37.739Z,-0.7
2017-11-30T22:58:39.185Z,-0.7
2017-11-30T22:59:40.522Z,-0.8
2017-11-30T23:00:41.807Z,-0.8
2017-11-30T23:01:43.128Z,-0.8
2017-11-30T23:02:44.463Z,-0.8
2017-11-30T23:03:45.755Z,-0.7
2017-11-30T23:04:47.044Z,-0.7
2017-11-30T23:05:49.774Z,-0.7
2017-11-30T23:06:51.082Z,-0.7
2017-11-30T23:07:52.444Z,-1.2
2017-11-30T23:08:53.674Z,-0.7
2017-11-30T23:09:55.219Z,-0.7
2017-11-30T23:10:56.499Z,-0.6
2017-11-30T23:11:57.809Z,-0.6
2017-11-30T23:12:59.129Z,-0.6
2017-11-30T23:14:01.127Z,-0.6
2017-11-30T23:15:03.128Z,-0.6
2017-11-30T23:16:05.951Z,-0.6
2017-11-30T23:17:07.283Z,-0.6
2017-11-30T23:18:08.621Z,-0.7
2017-11-30T23:19:09.925Z,-0.7
2017-11-30T23:20:11.291Z,-0.8
2017-11-30T23:21:12.644Z,-0.8
2017-11-30T23:22:13.958Z,-0.8
2017-11-30T23:23:15.189Z,-0.8
2017-11-30T23:24:16.510Z,-0.9
2017-11-30T23:25:18.125Z,-0.9
2017-11-30T23:26:20.673Z,-0.9
2017-11-30T23:27:22.031Z,-1
2017-11-30T23:28:23.429Z,-1
2017-11-30T23:29:24.748Z,-1
2017-11-30T23:30:26.363Z,-0.9
2017-11-30T23:31:27.633Z,-0.9
2017-11-30T23:32:28.948Z,-0.9
2017-11-30T23:33:30.318Z,-0.9
2017-11-30T23:34:31.667Z,-0.9
2017-11-30T23:35:33.098Z,-0.9
2017-11-30T23:36:35.739Z,-0.9
2017-11-30T23:37:37.727Z,-0.9
2017-11-30T23:38:39.111Z,-0.9
2017-11-30T23:39:40.468Z,-0.9
2017-11-30T23:40:41.892Z,-0.9
2017-11-30T23:41:43.321Z,-0.7
2017-11-30T23:42:44.659Z,-0.8
2017-11-30T23:43:45.978Z,-0.8
2017-11-30T23:44:47.451Z,-0.8
2017-11-30T23:45:48.734Z,-0.9
2017-11-30T23:46:51.541Z,-0.9
2017-11-30T23:47:52.755Z,-0.8
2017-11-30T23:48:54.156Z,-0.9
2017-11-30T23:49:55.452Z,-0.9
2017-11-30T23:50:56.804Z,-0.9
2017-11-30T23:51:58.152Z,-0.9
2017-11-30T23:53:00.433Z,-1.1
2017-11-30T23:54:01.728Z,-1.1
2017-11-30T23:55:03.140Z,-1.2
2017-11-30T23:56:04.449Z,-1.2
2017-11-30T23:57:07.081Z,-1.2
2017-11-30T23:58:08.345Z,-1.1
2017-11-30T23:59:09.627Z,-1.1
